Time;durP1;ratioP1;P1;durP2;ratioP2;P2;SDS_P1;SDS_P2;PMS_P1;PMS_P2;Temp;Humidity;BMP_temperature;BMP_pressure;BME280_temperature;BME280_humidity;BME280_pressure;Samples;Min_cycle;Max_cycle;Signal;HPM_P1;HPM_P2
2021/08/29 00:01:51;;;;;;;20.83;12.85;;;;;;;;;;5038370;28;20031;-67
2021/08/29 00:04:17;;;;;;;25.30;12.50;;;;;;;;;;5063688;28;20039;-68
2021/08/29 00:06:42;;;;;;;27.47;13.47;;;;;;;;;;5070331;28;20304;-67
2021/08/29 00:09:07;;;;;;;26.98;13.15;;;;;;;;;;5070059;28;20729;-67
2021/08/29 00:11:33;;;;;;;22.98;12.45;;;;;;;;;;5070198;28;20360;-67
2021/08/29 00:13:58;;;;;;;22.23;11.50;;;;;;;;;;5056463;28;20044;-67
2021/08/29 00:16:24;;;;;;;20.73;10.93;;;;;;;;;;5139501;22;20039;-71
2021/08/29 00:18:49;;;;;;;19.27;11.13;;;;;;;;;;5102221;28;20277;-71
2021/08/29 00:21:14;;;;;;;18.60;10.20;;;;;;;;;;5096004;28;20258;-71
2021/08/29 00:23:39;;;;;;;23.23;10.05;;;;;;;;;;5090245;28;20377;-71
2021/08/29 00:26:04;;;;;;;18.13;9.63;;;;;;;;;;5101015;28;20492;-71
2021/08/29 00:28:29;;;;;;;16.60;8.97;;;;;;;;;;5110495;28;20024;-71
2021/08/29 00:30:55;;;;;;;17.83;9.00;;;;;;;;;;5110144;28;20283;-71
2021/08/29 00:33:20;;;;;;;20.77;8.20;;;;;;;;;;5110212;28;20245;-71
2021/08/29 00:35:45;;;;;;;19.75;8.48;;;;;;;;;;5091730;28;20816;-71
2021/08/29 00:38:10;;;;;;;20.43;8.27;;;;;;;;;;5109594;28;20047;-71
2021/08/29 00:40:36;;;;;;;16.17;7.45;;;;;;;;;;5113892;28;20254;-71
2021/08/29 00:43:01;;;;;;;22.33;7.93;;;;;;;;;;5114250;28;20023;-71
2021/08/29 00:45:27;;;;;;;16.73;7.72;;;;;;;;;;5113898;28;20028;-71
2021/08/29 00:47:52;;;;;;;16.25;6.78;;;;;;;;;;5113487;28;20038;-71
2021/08/29 00:50:17;;;;;;;12.90;6.93;;;;;;;;;;5114049;28;20016;-70
2021/08/29 00:52:42;;;;;;;15.43;7.43;;;;;;;;;;5095465;28;20020;-71
2021/08/29 00:55:10;;;;;;;25.25;8.15;;;;;;;;;;5095568;28;20032;-71
2021/08/29 00:57:39;;;;;;;16.58;7.30;;;;;;;;;;5113968;28;20095;-70
2021/08/29 01:00:05;;;;;;;20.77;6.60;;;;;;;;;;5113874;28;20365;-71
2021/08/29 01:02:30;;;;;;;18.20;6.88;;;;;;;;;;5113710;28;20012;-71
2021/08/29 01:05:04;;;;;;;18.35;7.68;;;;;;;;;;5113672;28;20496;-71
2021/08/29 01:07:35;;;;;;;22.35;8.25;;;;;;;;;;5113950;28;20015;-70
2021/08/29 01:10:02;;;;;;;23.75;7.82;;;;;;;;;;5113533;28;20019;-71
2021/08/29 01:12:29;;;;;;;28.10;9.13;;;;;;;;;;5113258;28;20033;-70
2021/08/29 01:14:55;;;;;;;15.98;8.05;;;;;;;;;;5113544;28;20366;-70
2021/08/29 01:17:23;;;;;;;21.95;8.68;;;;;;;;;;5113778;28;20046;-70
2021/08/29 01:19:53;;;;;;;18.73;9.02;;;;;;;;;;5113833;28;20115;-70
2021/08/29 01:22:19;;;;;;;23.45;8.70;;;;;;;;;;5113346;28;20108;-71
2021/08/29 01:24:45;;;;;;;18.55;8.57;;;;;;;;;;5113361;28;20027;-70
2021/08/29 01:27:16;;;;;;;17.45;8.13;;;;;;;;;;5113416;28;20808;-70
2021/08/29 01:29:42;;;;;;;23.05;8.80;;;;;;;;;;5113569;28;20480;-70
2021/08/29 01:32:07;;;;;;;19.42;9.32;;;;;;;;;;5094773;28;20168;-70
2021/08/29 01:34:34;;;;;;;31.75;9.70;;;;;;;;;;5113103;28;20059;-70
2021/08/29 01:36:59;;;;;;;22.88;10.05;;;;;;;;;;5094776;28;20024;-70
2021/08/29 01:39:24;;;;;;;17.77;9.13;;;;;;;;;;5113343;28;20016;-71
2021/08/29 01:41:50;;;;;;;18.33;9.63;;;;;;;;;;5113038;28;20019;-70
2021/08/29 01:44:19;;;;;;;23.48;9.18;;;;;;;;;;5113003;28;20020;-70
2021/08/29 01:46:45;;;;;;;26.95;9.55;;;;;;;;;;5112711;28;20016;-70
2021/08/29 01:49:11;;;;;;;25.52;10.38;;;;;;;;;;5113140;28;20377;-70
2021/08/29 01:51:37;;;;;;;22.20;9.40;;;;;;;;;;5107486;28;20377;-70
2021/08/29 01:54:02;;;;;;;20.20;9.23;;;;;;;;;;5100693;28;20394;-71
2021/08/29 01:56:28;;;;;;;26.93;9.80;;;;;;;;;;5092610;28;20024;-70
2021/08/29 01:58:53;;;;;;;24.10;9.85;;;;;;;;;;5107263;28;20257;-69
2021/08/29 02:01:18;;;;;;;23.83;9.48;;;;;;;;;;5112580;28;20038;-69
2021/08/29 02:03:44;;;;;;;23.40;9.55;;;;;;;;;;5112737;28;20027;-69
2021/08/29 02:06:21;;;;;;;26.33;11.20;;;;;;;;;;5094585;28;20096;-69
2021/08/29 02:08:49;;;;;;;22.55;11.15;;;;;;;;;;5113223;28;20008;-69
2021/08/29 02:11:16;;;;;;;26.38;11.20;;;;;;;;;;5113055;28;20426;-70
2021/08/29 02:13:42;;;;;;;22.67;11.63;;;;;;;;;;5112468;28;20023;-69
2021/08/29 02:16:13;;;;;;;28.25;13.10;;;;;;;;;;5112002;28;20473;-69
2021/08/29 02:18:41;;;;;;;29.38;12.57;;;;;;;;;;5112519;28;20015;-69
2021/08/29 02:21:06;;;;;;;27.02;12.77;;;;;;;;;;5112377;28;20534;-69
2021/08/29 02:23:32;;;;;;;37.50;14.23;;;;;;;;;;5111579;28;20020;-69
2021/08/29 02:25:57;;;;;;;25.23;13.38;;;;;;;;;;5112362;28;20020;-69
2021/08/29 02:28:23;;;;;;;34.63;13.02;;;;;;;;;;5112158;28;20019;-69
2021/08/29 02:30:48;;;;;;;25.13;11.88;;;;;;;;;;5112254;28;20027;-69
2021/08/29 02:33:14;;;;;;;28.60;11.75;;;;;;;;;;5111938;28;20036;-69
2021/08/29 02:35:41;;;;;;;23.38;11.68;;;;;;;;;;5111890;28;20023;-69
2021/08/29 02:38:06;;;;;;;28.00;11.50;;;;;;;;;;5112117;28;20026;-69
2021/08/29 02:40:40;;;;;;;23.60;10.68;;;;;;;;;;5112271;28;20011;-69
2021/08/29 02:43:06;;;;;;;22.85;11.15;;;;;;;;;;5111637;28;20012;-69
2021/08/29 02:45:33;;;;;;;25.05;12.10;;;;;;;;;;5111992;28;20023;-69
2021/08/29 02:47:59;;;;;;;31.23;12.07;;;;;;;;;;5112013;28;20047;-69
2021/08/29 02:50:24;;;;;;;31.83;12.93;;;;;;;;;;5110256;28;20056;-69
2021/08/29 02:52:49;;;;;;;24.10;11.55;;;;;;;;;;5111589;28;20019;-69
2021/08/29 02:55:15;;;;;;;20.17;10.97;;;;;;;;;;5111800;28;20077;-69
2021/08/29 02:57:43;;;;;;;22.27;11.02;;;;;;;;;;5111014;28;20250;-69
2021/08/29 03:00:11;;;;;;;27.38;11.65;;;;;;;;;;5111042;28;20030;-69
2021/08/29 03:02:36;;;;;;;22.05;11.82;;;;;;;;;;5110546;28;20023;-69
2021/08/29 03:05:01;;;;;;;26.83;11.50;;;;;;;;;;5093174;28;20024;-69
2021/08/29 03:07:26;;;;;;;34.75;13.32;;;;;;;;;;5111662;28;20061;-69
2021/08/29 03:09:52;;;;;;;20.45;11.48;;;;;;;;;;5111214;28;20024;-69
2021/08/29 03:12:18;;;;;;;29.65;13.02;;;;;;;;;;5110968;28;20020;-69
2021/08/29 03:14:44;;;;;;;28.05;12.75;;;;;;;;;;5111147;28;20031;-69
2021/08/29 03:17:09;;;;;;;23.65;13.30;;;;;;;;;;5111449;28;20381;-69
2021/08/29 03:19:35;;;;;;;26.38;12.52;;;;;;;;;;5111369;28;20065;-69
2021/08/29 03:22:00;;;;;;;28.50;12.70;;;;;;;;;;5111001;28;20023;-69
2021/08/29 03:24:25;;;;;;;30.83;13.07;;;;;;;;;;5111251;28;20030;-69
2021/08/29 03:26:50;;;;;;;31.75;13.55;;;;;;;;;;5111375;28;20103;-69
2021/08/29 03:29:16;;;;;;;33.65;13.52;;;;;;;;;;5111388;28;20075;-69
2021/08/29 03:31:41;;;;;;;27.88;13.55;;;;;;;;;;5111090;28;20023;-69
2021/08/29 03:34:06;;;;;;;27.95;12.98;;;;;;;;;;5110748;28;20381;-69
2021/08/29 03:36:32;;;;;;;30.65;13.70;;;;;;;;;;5110873;28;20047;-69
2021/08/29 03:38:59;;;;;;;27.60;13.65;;;;;;;;;;5110927;28;20112;-69
2021/08/29 03:41:25;;;;;;;26.63;13.60;;;;;;;;;;5111152;28;20016;-69
2021/08/29 03:43:50;;;;;;;31.92;15.85;;;;;;;;;;5110682;28;20153;-69
2021/08/29 03:46:16;;;;;;;35.70;16.65;;;;;;;;;;5110678;28;20081;-69
2021/08/29 03:48:41;;;;;;;29.23;16.30;;;;;;;;;;5110870;28;20500;-69
2021/08/29 03:51:08;;;;;;;30.42;14.80;;;;;;;;;;5110982;28;20030;-69
2021/08/29 03:53:34;;;;;;;39.35;16.77;;;;;;;;;;5110671;28;20018;-69
2021/08/29 03:55:59;;;;;;;29.30;15.68;;;;;;;;;;5110615;28;20027;-69
2021/08/29 03:58:24;;;;;;;44.65;16.38;;;;;;;;;;5110606;28;20483;-69
2021/08/29 04:00:50;;;;;;;33.37;15.97;;;;;;;;;;5110804;28;20016;-69
2021/08/29 04:03:15;;;;;;;36.05;15.43;;;;;;;;;;5110632;28;20267;-69
2021/08/29 04:05:41;;;;;;;35.42;15.02;;;;;;;;;;5110784;28;20020;-69
2021/08/29 04:08:08;;;;;;;37.33;15.30;;;;;;;;;;5111091;28;20069;-69
2021/08/29 04:10:34;;;;;;;32.08;15.48;;;;;;;;;;5110314;28;20114;-70
2021/08/29 04:13:00;;;;;;;39.45;15.57;;;;;;;;;;5110238;28;20039;-69
2021/08/29 04:15:25;;;;;;;31.52;15.70;;;;;;;;;;5113902;28;20164;-70
2021/08/29 04:17:51;;;;;;;31.23;14.52;;;;;;;;;;5114708;28;20047;-69
2021/08/29 04:20:17;;;;;;;38.75;15.85;;;;;;;;;;5114930;28;20035;-69
2021/08/29 04:22:42;;;;;;;38.90;15.38;;;;;;;;;;5114316;28;20127;-70
2021/08/29 04:25:08;;;;;;;36.42;15.57;;;;;;;;;;5113920;28;20603;-69
2021/08/29 04:27:33;;;;;;;39.53;16.27;;;;;;;;;;5114210;28;20116;-70
2021/08/29 04:29:58;;;;;;;35.47;17.52;;;;;;;;;;5114634;28;20076;-69
2021/08/29 04:32:25;;;;;;;32.25;15.93;;;;;;;;;;5114110;28;20473;-69
2021/08/29 04:34:50;;;;;;;35.22;16.42;;;;;;;;;;5114330;28;20095;-70
2021/08/29 04:37:15;;;;;;;46.83;16.73;;;;;;;;;;5114441;28;20536;-70
2021/08/29 04:39:41;;;;;;;40.42;17.20;;;;;;;;;;5114545;28;20542;-70
2021/08/29 04:42:06;;;;;;;36.53;17.70;;;;;;;;;;5112895;28;20461;-69
2021/08/29 04:44:32;;;;;;;41.55;19.15;;;;;;;;;;5114324;28;20470;-69
2021/08/29 04:46:57;;;;;;;36.20;17.63;;;;;;;;;;5114191;28;20030;-69
2021/08/29 04:49:22;;;;;;;50.67;19.20;;;;;;;;;;5114674;28;20024;-69
2021/08/29 04:51:47;;;;;;;42.47;22.70;;;;;;;;;;5114405;28;20353;-69
2021/08/29 04:54:12;;;;;;;44.65;21.73;;;;;;;;;;5108532;28;20287;-70
2021/08/29 04:56:38;;;;;;;45.92;22.77;;;;;;;;;;5095122;28;20024;-69
2021/08/29 04:59:03;;;;;;;49.37;21.70;;;;;;;;;;5113747;28;20023;-70
2021/08/29 05:01:30;;;;;;;44.30;23.07;;;;;;;;;;5113909;28;20262;-69
2021/08/29 05:03:56;;;;;;;54.05;23.75;;;;;;;;;;5113655;28;20254;-69
2021/08/29 05:06:21;;;;;;;47.70;22.92;;;;;;;;;;5113973;28;20030;-70
2021/08/29 05:08:47;;;;;;;62.83;25.83;;;;;;;;;;5113630;28;20026;-69
2021/08/29 05:11:12;;;;;;;53.38;26.10;;;;;;;;;;5113963;28;20627;-69
2021/08/29 05:13:37;;;;;;;64.97;25.97;;;;;;;;;;5113609;28;20019;-70
2021/08/29 05:16:03;;;;;;;59.00;25.37;;;;;;;;;;5113071;28;20369;-70
2021/08/29 05:18:29;;;;;;;57.10;25.63;;;;;;;;;;5113641;28;20808;-69
2021/08/29 05:20:54;;;;;;;55.05;24.77;;;;;;;;;;5113462;28;20111;-69
2021/08/29 05:23:19;;;;;;;57.57;26.90;;;;;;;;;;5113115;28;20106;-70
2021/08/29 05:25:44;;;;;;;61.47;28.27;;;;;;;;;;5113229;28;20253;-69
2021/08/29 05:28:10;;;;;;;55.53;26.90;;;;;;;;;;5113637;28;20031;-69
2021/08/29 05:30:35;;;;;;;58.40;27.10;;;;;;;;;;5113529;28;20272;-70
2021/08/29 05:33:01;;;;;;;59.58;27.67;;;;;;;;;;5112867;28;20288;-70
2021/08/29 05:35:26;;;;;;;57.63;28.33;;;;;;;;;;5113249;28;20027;-70
2021/08/29 05:37:51;;;;;;;57.17;26.13;;;;;;;;;;5113484;28;20254;-69
2021/08/29 05:40:16;;;;;;;56.17;24.73;;;;;;;;;;5113219;28;20261;-70
2021/08/29 05:42:41;;;;;;;58.35;25.52;;;;;;;;;;5113097;28;20332;-69
2021/08/29 05:45:07;;;;;;;47.23;23.20;;;;;;;;;;5112918;28;20019;-70
2021/08/29 05:47:32;;;;;;;49.88;21.27;;;;;;;;;;5112893;28;20272;-70
2021/08/29 05:49:57;;;;;;;50.70;19.83;;;;;;;;;;5113261;28;20457;-70
2021/08/29 05:52:22;;;;;;;38.43;17.87;;;;;;;;;;5112805;28;20252;-69
2021/08/29 05:54:47;;;;;;;44.87;17.47;;;;;;;;;;5113111;28;20475;-70
2021/08/29 05:57:12;;;;;;;47.87;17.07;;;;;;;;;;5112531;28;20296;-69
2021/08/29 05:59:38;;;;;;;40.53;15.87;;;;;;;;;;5112797;28;20276;-69
2021/08/29 06:02:03;;;;;;;34.33;14.77;;;;;;;;;;5112627;28;20249;-69
2021/08/29 06:04:28;;;;;;;41.45;16.48;;;;;;;;;;5112646;28;20348;-69
2021/08/29 06:06:54;;;;;;;41.38;17.52;;;;;;;;;;5095403;28;20031;-69
2021/08/29 06:09:19;;;;;;;39.63;17.13;;;;;;;;;;5105092;28;20049;-69
2021/08/29 06:11:45;;;;;;;38.93;17.10;;;;;;;;;;5112390;28;20457;-70
2021/08/29 06:14:10;;;;;;;36.40;17.27;;;;;;;;;;5111395;28;20261;-69
2021/08/29 06:16:35;;;;;;;46.03;17.07;;;;;;;;;;5111880;28;20032;-69
2021/08/29 06:19:00;;;;;;;46.25;17.10;;;;;;;;;;5112637;28;20444;-69
2021/08/29 06:21:25;;;;;;;31.02;14.93;;;;;;;;;;5125728;27;20011;-70
2021/08/29 06:23:50;;;;;;;36.70;16.77;;;;;;;;;;5131349;27;20060;-70
2021/08/29 06:26:16;;;;;;;39.83;17.07;;;;;;;;;;5092561;28;20270;-70
2021/08/29 06:28:41;;;;;;;35.45;16.30;;;;;;;;;;5093788;28;20257;-70
2021/08/29 06:31:06;;;;;;;35.53;16.25;;;;;;;;;;5112072;28;20031;-70
2021/08/29 06:33:31;;;;;;;48.97;16.97;;;;;;;;;;5111166;28;20024;-69
2021/08/29 06:35:56;;;;;;;45.03;16.30;;;;;;;;;;5111610;28;20384;-70
2021/08/29 06:38:22;;;;;;;36.28;15.02;;;;;;;;;;5090705;28;20267;-70
2021/08/29 06:40:47;;;;;;;37.28;16.35;;;;;;;;;;5093527;28;20021;-70
2021/08/29 06:43:13;;;;;;;40.47;15.75;;;;;;;;;;5111033;28;20597;-70
2021/08/29 06:45:38;;;;;;;42.38;15.73;;;;;;;;;;5111510;28;20481;-70
2021/08/29 06:48:04;;;;;;;36.38;15.40;;;;;;;;;;5112215;28;20026;-70
2021/08/29 06:50:29;;;;;;;29.70;14.43;;;;;;;;;;5112104;28;20366;-70
2021/08/29 06:52:54;;;;;;;34.50;14.57;;;;;;;;;;5111201;28;20016;-70
2021/08/29 06:55:19;;;;;;;37.07;14.87;;;;;;;;;;5111043;28;20329;-70
2021/08/29 06:57:44;;;;;;;37.10;15.17;;;;;;;;;;5093172;28;20347;-70
2021/08/29 07:00:10;;;;;;;31.92;14.27;;;;;;;;;;5111179;28;20628;-69
2021/08/29 07:02:35;;;;;;;35.53;14.35;;;;;;;;;;5111550;28;20012;-69
2021/08/29 07:05:00;;;;;;;33.33;14.82;;;;;;;;;;5111279;28;20019;-70
2021/08/29 07:07:25;;;;;;;40.38;13.75;;;;;;;;;;5111162;28;20023;-69
2021/08/29 07:09:51;;;;;;;38.37;15.50;;;;;;;;;;5110631;28;20481;-70
2021/08/29 07:12:16;;;;;;;37.78;14.07;;;;;;;;;;5110405;28;20657;-70
2021/08/29 07:14:41;;;;;;;29.40;13.32;;;;;;;;;;5111043;28;20363;-69
2021/08/29 07:17:06;;;;;;;31.17;13.18;;;;;;;;;;5110573;28;20015;-70
2021/08/29 07:19:31;;;;;;;31.58;12.82;;;;;;;;;;5111527;28;20474;-69
2021/08/29 07:21:57;;;;;;;32.67;14.23;;;;;;;;;;5111098;28;20012;-70
2021/08/29 07:24:22;;;;;;;36.00;13.35;;;;;;;;;;5110934;28;20050;-70
2021/08/29 07:26:47;;;;;;;34.60;13.27;;;;;;;;;;5108334;28;20069;-69
2021/08/29 07:29:12;;;;;;;38.17;13.67;;;;;;;;;;5110758;28;20016;-69
2021/08/29 07:31:37;;;;;;;37.20;13.23;;;;;;;;;;5111094;28;20621;-69
2021/08/29 07:34:03;;;;;;;31.30;14.68;;;;;;;;;;5110832;28;20256;-70
2021/08/29 07:36:28;;;;;;;27.98;13.23;;;;;;;;;;5110870;28;20103;-69
2021/08/29 07:38:53;;;;;;;37.25;12.82;;;;;;;;;;5111502;28;20466;-70
2021/08/29 07:41:18;;;;;;;38.00;14.15;;;;;;;;;;5110734;28;20080;-70
2021/08/29 07:43:43;;;;;;;27.77;12.18;;;;;;;;;;5110503;28;20663;-70
2021/08/29 07:46:09;;;;;;;36.67;12.73;;;;;;;;;;5110783;28;20055;-69
2021/08/29 07:48:34;;;;;;;24.98;12.00;;;;;;;;;;5110292;28;20249;-70
2021/08/29 07:50:59;;;;;;;28.23;12.15;;;;;;;;;;5110931;28;20534;-70
2021/08/29 07:53:24;;;;;;;24.60;12.55;;;;;;;;;;5110586;28;20035;-70
2021/08/29 07:55:49;;;;;;;32.97;13.38;;;;;;;;;;5110497;28;20039;-70
2021/08/29 07:58:15;;;;;;;30.95;14.02;;;;;;;;;;5110880;28;20038;-69
2021/08/29 08:00:40;;;;;;;31.17;14.15;;;;;;;;;;5110652;28;20465;-70
2021/08/29 08:03:05;;;;;;;34.10;14.23;;;;;;;;;;5092228;28;20065;-70
2021/08/29 08:05:30;;;;;;;36.43;14.47;;;;;;;;;;5110715;28;20389;-70
2021/08/29 08:07:55;;;;;;;29.02;13.00;;;;;;;;;;5110689;28;20285;-70
2021/08/29 08:10:23;;;;;;;31.25;13.55;;;;;;;;;;5110479;28;20092;-69
2021/08/29 08:12:48;;;;;;;35.60;13.63;;;;;;;;;;5110208;28;20016;-70
2021/08/29 08:15:13;;;;;;;30.80;13.15;;;;;;;;;;5109819;28;20119;-69
2021/08/29 08:17:40;;;;;;;35.53;12.57;;;;;;;;;;5110770;28;20055;-70
2021/08/29 08:20:05;;;;;;;35.15;12.82;;;;;;;;;;5110494;28;20020;-70
2021/08/29 08:22:30;;;;;;;29.65;12.80;;;;;;;;;;5110612;28;20016;-70
2021/08/29 08:24:55;;;;;;;31.00;11.77;;;;;;;;;;5110610;28;20541;-70
2021/08/29 08:27:21;;;;;;;26.60;12.70;;;;;;;;;;5109662;28;20020;-70
2021/08/29 08:29:46;;;;;;;31.98;13.50;;;;;;;;;;5110328;28;20043;-70
2021/08/29 08:32:11;;;;;;;33.53;12.70;;;;;;;;;;5109953;28;20027;-70
2021/08/29 08:34:36;;;;;;;33.20;13.57;;;;;;;;;;5092330;28;20254;-70
2021/08/29 08:37:01;;;;;;;28.27;11.93;;;;;;;;;;5110385;28;20019;-70
2021/08/29 08:39:27;;;;;;;28.40;11.73;;;;;;;;;;5110169;28;20032;-70
2021/08/29 08:41:52;;;;;;;33.60;11.77;;;;;;;;;;5110351;28;20023;-70
2021/08/29 08:44:17;;;;;;;25.63;11.30;;;;;;;;;;5110178;28;20798;-70
2021/08/29 08:46:43;;;;;;;28.77;11.30;;;;;;;;;;5110257;28;20258;-70
2021/08/29 08:49:09;;;;;;;24.77;10.27;;;;;;;;;;5110312;28;20020;-70
2021/08/29 08:51:36;;;;;;;28.63;11.38;;;;;;;;;;5109902;28;20024;-70
2021/08/29 08:54:03;;;;;;;25.73;10.55;;;;;;;;;;5110089;28;20625;-70
2021/08/29 08:56:29;;;;;;;23.63;10.55;;;;;;;;;;5109528;28;20114;-70
2021/08/29 08:58:58;;;;;;;28.98;10.02;;;;;;;;;;5116011;28;20095;-70
2021/08/29 09:01:24;;;;;;;28.85;10.32;;;;;;;;;;5133865;27;20099;-70
2021/08/29 09:03:49;;;;;;;27.63;9.65;;;;;;;;;;5114015;27;20490;-70
2021/08/29 09:06:15;;;;;;;33.00;8.82;;;;;;;;;;5113746;28;20070;-70
2021/08/29 09:08:40;;;;;;;23.35;9.82;;;;;;;;;;5113925;28;20531;-70
2021/08/29 09:11:06;;;;;;;19.50;9.27;;;;;;;;;;5113761;28;20032;-70
2021/08/29 09:13:46;;;;;;;19.80;8.93;;;;;;;;;;5113386;28;20019;-70
2021/08/29 09:16:15;;;;;;;25.13;10.25;;;;;;;;;;5113519;28;20023;-70
2021/08/29 09:18:47;;;;;;;27.50;10.65;;;;;;;;;;5113512;28;20161;-70
2021/08/29 09:21:29;;;;;;;21.75;10.68;;;;;;;;;;5113408;28;20477;-70
2021/08/29 09:23:55;;;;;;;17.40;9.65;;;;;;;;;;5113333;28;20024;-70
2021/08/29 09:26:22;;;;;;;18.38;9.10;;;;;;;;;;5113594;28;20039;-70
2021/08/29 09:28:47;;;;;;;16.00;8.57;;;;;;;;;;5113971;28;20031;-70
2021/08/29 09:31:14;;;;;;;11.82;6.18;;;;;;;;;;5113617;28;20046;-70
2021/08/29 09:33:39;;;;;;;13.40;5.90;;;;;;;;;;5112890;28;20026;-70
2021/08/29 09:36:05;;;;;;;13.23;6.55;;;;;;;;;;5108642;28;20019;-70
2021/08/29 09:38:37;;;;;;;14.75;6.13;;;;;;;;;;5095436;28;20438;-70
2021/08/29 09:41:02;;;;;;;14.30;5.75;;;;;;;;;;5092830;28;20099;-70
2021/08/29 09:43:34;;;;;;;14.82;6.72;;;;;;;;;;5096416;28;20090;-70
2021/08/29 09:46:05;;;;;;;14.57;6.82;;;;;;;;;;5112532;28;20020;-70
2021/08/29 09:48:30;;;;;;;12.45;6.60;;;;;;;;;;5112548;28;20046;-69
2021/08/29 09:50:56;;;;;;;14.85;6.32;;;;;;;;;;5112966;28;20094;-69
2021/08/29 09:53:21;;;;;;;12.30;7.43;;;;;;;;;;5112357;28;20428;-69
2021/08/29 09:55:47;;;;;;;16.17;7.40;;;;;;;;;;5112738;28;20095;-70
2021/08/29 09:58:23;;;;;;;13.07;6.75;;;;;;;;;;5112791;28;20022;-70
2021/08/29 10:01:11;;;;;;;15.02;7.95;;;;;;;;;;5111134;27;20016;-70
2021/08/29 10:03:57;;;;;;;12.10;6.13;;;;;;;;;;5117774;27;20012;-70
2021/08/29 10:06:26;;;;;;;12.75;5.75;;;;;;;;;;5113938;27;20048;-70
2021/08/29 10:08:55;;;;;;;13.25;5.20;;;;;;;;;;5092243;28;20069;-69
2021/08/29 10:11:21;;;;;;;9.82;4.53;;;;;;;;;;5091713;28;20098;-69
2021/08/29 10:13:47;;;;;;;12.25;5.20;;;;;;;;;;5091865;28;20550;-69
2021/08/29 10:16:13;;;;;;;11.38;4.53;;;;;;;;;;5091880;28;20106;-70
2021/08/29 10:18:40;;;;;;;10.57;5.85;;;;;;;;;;5109726;28;20015;-69
2021/08/29 10:21:06;;;;;;;12.13;4.25;;;;;;;;;;5112333;28;20020;-70
2021/08/29 10:23:32;;;;;;;11.45;4.22;;;;;;;;;;5112111;28;20041;-70
2021/08/29 10:25:58;;;;;;;12.90;4.30;;;;;;;;;;5112285;28;20111;-70
2021/08/29 10:28:25;;;;;;;12.23;5.03;;;;;;;;;;5112227;28;20015;-70
2021/08/29 10:30:55;;;;;;;13.65;4.78;;;;;;;;;;5111910;28;20424;-70
2021/08/29 10:33:20;;;;;;;14.75;5.38;;;;;;;;;;5111755;28;20493;-70
2021/08/29 10:35:46;;;;;;;15.68;6.03;;;;;;;;;;5112602;28;20020;-69
2021/08/29 10:38:11;;;;;;;18.00;6.35;;;;;;;;;;5112275;28;20474;-70
2021/08/29 10:40:37;;;;;;;13.30;4.93;;;;;;;;;;5093843;28;20064;-70
2021/08/29 10:43:03;;;;;;;11.43;4.65;;;;;;;;;;5111674;28;20023;-70
2021/08/29 10:45:28;;;;;;;7.43;3.55;;;;;;;;;;5111828;28;20016;-69
2021/08/29 10:47:54;;;;;;;8.95;3.58;;;;;;;;;;5111421;28;20469;-70
2021/08/29 10:50:20;;;;;;;10.65;2.95;;;;;;;;;;5111386;28;20015;-72
2021/08/29 10:52:45;;;;;;;8.50;3.47;;;;;;;;;;5111570;28;20492;-70
2021/08/29 10:55:14;;;;;;;16.73;3.92;;;;;;;;;;5111477;28;20015;-70
2021/08/29 10:57:40;;;;;;;6.72;3.70;;;;;;;;;;5111567;28;20105;-70
2021/08/29 11:00:13;;;;;;;7.65;3.13;;;;;;;;;;5111201;28;20489;-71
2021/08/29 11:02:40;;;;;;;5.70;2.88;;;;;;;;;;5110865;28;20142;-71
2021/08/29 11:05:06;;;;;;;5.95;2.60;;;;;;;;;;5110210;28;20019;-71
2021/08/29 11:07:36;;;;;;;6.22;2.90;;;;;;;;;;5107161;28;20110;-71
2021/08/29 11:10:01;;;;;;;4.40;2.58;;;;;;;;;;5095490;28;20382;-71
2021/08/29 11:12:26;;;;;;;7.47;2.63;;;;;;;;;;5111246;28;20035;-70
2021/08/29 11:14:56;;;;;;;8.75;2.88;;;;;;;;;;5111506;28;20280;-71
2021/08/29 11:17:22;;;;;;;6.00;2.72;;;;;;;;;;5111735;28;20023;-70
2021/08/29 11:19:52;;;;;;;5.15;2.90;;;;;;;;;;5111947;28;20068;-70
2021/08/29 11:22:17;;;;;;;8.70;4.05;;;;;;;;;;5111285;28;20028;-71
2021/08/29 11:24:45;;;;;;;4.50;3.42;;;;;;;;;;5111580;28;20070;-70
2021/08/29 11:27:30;;;;;;;6.25;3.60;;;;;;;;;;5111030;28;20046;-71
2021/08/29 11:29:56;;;;;;;7.78;3.65;;;;;;;;;;5111192;28;20023;-71
2021/08/29 11:32:34;;;;;;;9.27;4.07;;;;;;;;;;5110740;28;20452;-71
2021/08/29 11:35:08;;;;;;;7.18;4.00;;;;;;;;;;5110859;28;20428;-71
2021/08/29 11:37:33;;;;;;;10.90;4.35;;;;;;;;;;5111392;28;20023;-71
2021/08/29 11:40:02;;;;;;;6.85;3.55;;;;;;;;;;5111788;28;20069;-71
2021/08/29 11:42:28;;;;;;;3.75;2.47;;;;;;;;;;5111031;28;20492;-71
2021/08/29 11:44:54;;;;;;;5.00;2.58;;;;;;;;;;5111288;28;20020;-71
2021/08/29 11:47:20;;;;;;;4.28;2.53;;;;;;;;;;5110777;28;20039;-71
2021/08/29 11:49:52;;;;;;;5.68;2.97;;;;;;;;;;5111163;28;20023;-71
2021/08/29 11:52:25;;;;;;;6.55;2.90;;;;;;;;;;5110805;28;20023;-71
2021/08/29 11:55:01;;;;;;;6.68;3.17;;;;;;;;;;5111085;28;20473;-71
2021/08/29 11:57:26;;;;;;;5.75;2.40;;;;;;;;;;5110894;28;20031;-71
2021/08/29 12:00:04;;;;;;;4.73;3.10;;;;;;;;;;5092461;28;20031;-71
2021/08/29 12:02:36;;;;;;;8.57;3.60;;;;;;;;;;5110655;28;20763;-71
2021/08/29 12:05:11;;;;;;;6.43;3.70;;;;;;;;;;5110781;28;20124;-71
2021/08/29 12:07:37;;;;;;;5.68;3.10;;;;;;;;;;5110687;28;20032;-71
2021/08/29 12:10:03;;;;;;;6.28;3.63;;;;;;;;;;5111016;28;20015;-71
2021/08/29 12:12:29;;;;;;;8.93;4.13;;;;;;;;;;5091818;28;20023;-71
2021/08/29 12:14:55;;;;;;;4.15;3.00;;;;;;;;;;5118717;22;20030;-69
2021/08/29 12:17:21;;;;;;;4.88;3.50;;;;;;;;;;5081531;28;20055;-70
2021/08/29 12:19:50;;;;;;;4.97;3.67;;;;;;;;;;5089906;28;20012;-70
2021/08/29 12:22:15;;;;;;;4.95;3.47;;;;;;;;;;5090069;28;20013;-70
2021/08/29 12:24:41;;;;;;;6.22;3.78;;;;;;;;;;5090433;28;20028;-70
2021/08/29 12:27:08;;;;;;;6.57;3.80;;;;;;;;;;5090122;28;20465;-70
2021/08/29 12:29:46;;;;;;;10.93;3.38;;;;;;;;;;5088348;28;20039;-70
2021/08/29 12:32:13;;;;;;;8.05;3.88;;;;;;;;;;5089593;28;20444;-70
2021/08/29 12:34:38;;;;;;;8.25;4.72;;;;;;;;;;5090571;28;20016;-70
2021/08/29 12:37:04;;;;;;;9.23;4.93;;;;;;;;;;5094049;28;20023;-70
2021/08/29 12:39:30;;;;;;;10.25;5.13;;;;;;;;;;5094281;28;20359;-70
2021/08/29 12:42:12;;;;;;;9.52;5.72;;;;;;;;;;5093589;28;20020;-70
2021/08/29 12:44:37;;;;;;;9.27;6.30;;;;;;;;;;5094283;28;20031;-70
2021/08/29 12:47:02;;;;;;;10.73;6.77;;;;;;;;;;5092274;28;20407;-70
2021/08/29 12:49:27;;;;;;;10.57;7.28;;;;;;;;;;5094091;28;20293;-70
2021/08/29 12:51:54;;;;;;;15.75;8.95;;;;;;;;;;5094103;28;20016;-70
2021/08/29 12:54:19;;;;;;;14.15;9.18;;;;;;;;;;5093876;28;20046;-70
2021/08/29 12:56:50;;;;;;;13.43;8.68;;;;;;;;;;5093837;28;20060;-70
2021/08/29 12:59:23;;;;;;;15.30;10.45;;;;;;;;;;5093872;28;20020;-70
2021/08/29 13:01:51;;;;;;;14.57;9.98;;;;;;;;;;5091946;28;20417;-70
2021/08/29 13:04:22;;;;;;;14.68;9.80;;;;;;;;;;5093196;28;20024;-70
2021/08/29 13:06:47;;;;;;;15.27;9.63;;;;;;;;;;5085161;28;20055;-70
2021/08/29 13:09:12;;;;;;;15.20;10.05;;;;;;;;;;5073364;28;20024;-70
2021/08/29 13:11:42;;;;;;;17.17;9.43;;;;;;;;;;5073724;28;20024;-71
2021/08/29 13:14:09;;;;;;;15.60;10.07;;;;;;;;;;5072879;28;20255;-70
2021/08/29 13:16:38;;;;;;;16.67;10.13;;;;;;;;;;5086719;28;20032;-70
2021/08/29 13:19:04;;;;;;;21.88;11.00;;;;;;;;;;5093386;28;20409;-70
2021/08/29 13:21:30;;;;;;;17.07;10.57;;;;;;;;;;5093391;28;20060;-70
2021/08/29 13:23:57;;;;;;;16.08;10.55;;;;;;;;;;5092718;28;20258;-70
2021/08/29 13:26:23;;;;;;;17.85;10.30;;;;;;;;;;5093168;28;20043;-70
2021/08/29 13:28:49;;;;;;;13.43;9.20;;;;;;;;;;5093205;28;20024;-70
2021/08/29 13:31:15;;;;;;;18.35;9.60;;;;;;;;;;5092603;28;20111;-70
2021/08/29 13:33:40;;;;;;;14.90;8.77;;;;;;;;;;5074187;28;20112;-70
2021/08/29 13:36:06;;;;;;;21.67;10.48;;;;;;;;;;5078412;28;20075;-70
2021/08/29 13:38:32;;;;;;;13.23;9.60;;;;;;;;;;5092816;28;20024;-70
2021/08/29 13:40:58;;;;;;;15.93;8.50;;;;;;;;;;5092208;28;20023;-70
2021/08/29 13:43:31;;;;;;;12.55;9.13;;;;;;;;;;5092563;28;20016;-70
2021/08/29 13:46:03;;;;;;;16.02;10.27;;;;;;;;;;5092363;28;20028;-70
2021/08/29 13:48:29;;;;;;;16.58;10.57;;;;;;;;;;5091291;28;20073;-70
2021/08/29 13:50:55;;;;;;;19.40;10.63;;;;;;;;;;5092925;28;20023;-70
2021/08/29 13:53:25;;;;;;;14.63;9.80;;;;;;;;;;5092586;28;20427;-71
2021/08/29 13:55:50;;;;;;;14.60;10.65;;;;;;;;;;5092796;28;20678;-71
2021/08/29 13:58:15;;;;;;;15.43;9.83;;;;;;;;;;5092855;28;20107;-71
2021/08/29 14:00:41;;;;;;;13.23;9.73;;;;;;;;;;5092672;28;20270;-71
2021/08/29 14:03:06;;;;;;;12.27;9.10;;;;;;;;;;5092704;28;20049;-71
2021/08/29 14:05:31;;;;;;;12.37;7.70;;;;;;;;;;5079540;28;20027;-71
2021/08/29 14:08:00;;;;;;;10.98;7.70;;;;;;;;;;5072369;28;20272;-71
2021/08/29 14:10:25;;;;;;;11.93;9.25;;;;;;;;;;5079444;28;20412;-71
2021/08/29 14:12:51;;;;;;;13.65;8.73;;;;;;;;;;5091948;28;20085;-71
2021/08/29 14:15:19;;;;;;;16.48;9.55;;;;;;;;;;5095305;28;20099;-71
2021/08/29 14:17:45;;;;;;;13.75;9.05;;;;;;;;;;5112713;28;20050;-71
2021/08/29 14:20:11;;;;;;;12.73;9.48;;;;;;;;;;5112767;28;20053;-71